sensor_id;sensor_type;location;lat;lon;timestamp;P1;P2;P0
70554;PMS5003;58104;52.744;15.242;2024-02-15T00:00:11;11;11;
70554;PMS5003;58104;52.744;15.242;2024-02-15T00:02:36;16;13;
70554;PMS5003;58104;52.744;15.242;2024-02-15T00:05:01;12;10;
70554;PMS5003;58104;52.744;15.242;2024-02-15T00:07:27;8;8;
70554;PMS5003;58104;52.744;15.242;2024-02-15T00:09:52;8;8;
70554;PMS5003;58104;52.744;15.242;2024-02-15T00:12:18;7;7;
70554;PMS5003;58104;52.744;15.242;2024-02-15T00:14:43;9;9;
70554;PMS5003;58104;52.744;15.242;2024-02-15T00:17:09;12;10;
70554;PMS5003;58104;52.744;15.242;2024-02-15T00:19:36;9;7;
70554;PMS5003;58104;52.744;15.242;2024-02-15T00:21:59;8;8;
70554;PMS5003;58104;52.744;15.242;2024-02-15T00:24:25;8;8;
70554;PMS5003;58104;52.744;15.242;2024-02-15T00:26:50;9;6;
70554;PMS5003;58104;52.744;15.242;2024-02-15T00:29:16;9;9;
70554;PMS5003;58104;52.744;15.242;2024-02-15T00:31:41;7;7;
70554;PMS5003;58104;52.744;15.242;2024-02-15T00:34:06;9;7;
70554;PMS5003;58104;52.744;15.242;2024-02-15T00:36:32;8;8;
70554;PMS5003;58104;52.744;15.242;2024-02-15T00:38:57;8;8;
70554;PMS5003;58104;52.744;15.242;2024-02-15T00:41:23;9;7;
70554;PMS5003;58104;52.744;15.242;2024-02-15T00:43:48;10;10;
70554;PMS5003;58104;52.744;15.242;2024-02-15T00:46:14;9;8;
70554;PMS5003;58104;52.744;15.242;2024-02-15T00:48:39;7;7;
70554;PMS5003;58104;52.744;15.242;2024-02-15T00:51:04;10;6;
70554;PMS5003;58104;52.744;15.242;2024-02-15T00:53:30;8;8;
70554;PMS5003;58104;52.744;15.242;2024-02-15T00:55:55;9;7;
70554;PMS5003;58104;52.744;15.242;2024-02-15T00:58:21;9;9;
70554;PMS5003;58104;52.744;15.242;2024-02-15T01:00:46;9;9;
70554;PMS5003;58104;52.744;15.242;2024-02-15T01:03:12;9;9;
70554;PMS5003;58104;52.744;15.242;2024-02-15T01:05:37;6;6;
70554;PMS5003;58104;52.744;15.242;2024-02-15T01:08:03;11;10;
70554;PMS5003;58104;52.744;15.242;2024-02-15T01:10:28;10;8;
70554;PMS5003;58104;52.744;15.242;2024-02-15T01:12:53;10;7;
70554;PMS5003;58104;52.744;15.242;2024-02-15T01:15:19;10;10;
70554;PMS5003;58104;52.744;15.242;2024-02-15T01:17:44;9;9;
70554;PMS5003;58104;52.744;15.242;2024-02-15T01:20:10;7;7;
70554;PMS5003;58104;52.744;15.242;2024-02-15T01:22:35;8;7;
70554;PMS5003;58104;52.744;15.242;2024-02-15T01:25:01;9;8;
70554;PMS5003;58104;52.744;15.242;2024-02-15T01:27:26;8;8;
70554;PMS5003;58104;52.744;15.242;2024-02-15T01:29:51;6;6;
70554;PMS5003;58104;52.744;15.242;2024-02-15T01:32:17;9;7;
70554;PMS5003;58104;52.744;15.242;2024-02-15T01:34:42;10;10;
70554;PMS5003;58104;52.744;15.242;2024-02-15T01:37:08;8;8;
70554;PMS5003;58104;52.744;15.242;2024-02-15T01:39:33;10;9;
70554;PMS5003;58104;52.744;15.242;2024-02-15T01:41:59;11;10;
70554;PMS5003;58104;52.744;15.242;2024-02-15T01:44:24;11;9;
70554;PMS5003;58104;52.744;15.242;2024-02-15T01:46:50;8;8;
70554;PMS5003;58104;52.744;15.242;2024-02-15T01:49:15;7;7;
70554;PMS5003;58104;52.744;15.242;2024-02-15T01:51:40;9;9;
70554;PMS5003;58104;52.744;15.242;2024-02-15T01:54:06;10;9;
70554;PMS5003;58104;52.744;15.242;2024-02-15T01:56:31;9;8;
70554;PMS5003;58104;52.744;15.242;2024-02-15T01:58:56;5;5;
70554;PMS5003;58104;52.744;15.242;2024-02-15T02:01:22;8;8;
70554;PMS5003;58104;52.744;15.242;2024-02-15T02:03:47;9;9;
70554;PMS5003;58104;52.744;15.242;2024-02-15T02:06:12;9;9;
70554;PMS5003;58104;52.744;15.242;2024-02-15T02:08:38;7;7;
70554;PMS5003;58104;52.744;15.242;2024-02-15T02:11:03;7;7;
70554;PMS5003;58104;52.744;15.242;2024-02-15T02:13:29;9;9;
70554;PMS5003;58104;52.744;15.242;2024-02-15T02:15:54;9;6;
70554;PMS5003;58104;52.744;15.242;2024-02-15T02:18:19;7;7;
70554;PMS5003;58104;52.744;15.242;2024-02-15T02:20:45;6;6;
70554;PMS5003;58104;52.744;15.242;2024-02-15T02:23:13;7;7;
70554;PMS5003;58104;52.744;15.242;2024-02-15T02:25:36;9;9;
70554;PMS5003;58104;52.744;15.242;2024-02-15T02:28:01;7;7;
70554;PMS5003;58104;52.744;15.242;2024-02-15T02:30:26;9;9;
70554;PMS5003;58104;52.744;15.242;2024-02-15T02:32:52;8;8;
70554;PMS5003;58104;52.744;15.242;2024-02-15T02:35:17;7;7;
70554;PMS5003;58104;52.744;15.242;2024-02-15T02:37:43;10;9;
70554;PMS5003;58104;52.744;15.242;2024-02-15T02:40:09;9;9;
70554;PMS5003;58104;52.744;15.242;2024-02-15T02:42:34;9;8;
70554;PMS5003;58104;52.744;15.242;2024-02-15T02:44:59;10;9;
70554;PMS5003;58104;52.744;15.242;2024-02-15T02:47:24;8;8;
70554;PMS5003;58104;52.744;15.242;2024-02-15T02:49:50;8;8;
70554;PMS5003;58104;52.744;15.242;2024-02-15T02:52:15;8;8;
70554;PMS5003;58104;52.744;15.242;2024-02-15T02:54:41;6;6;
70554;PMS5003;58104;52.744;15.242;2024-02-15T02:57:06;9;8;
70554;PMS5003;58104;52.744;15.242;2024-02-15T02:59:32;11;10;
70554;PMS5003;58104;52.744;15.242;2024-02-15T03:01:57;8;6;
70554;PMS5003;58104;52.744;15.242;2024-02-15T03:04:22;9;9;
70554;PMS5003;58104;52.744;15.242;2024-02-15T03:06:48;8;8;
70554;PMS5003;58104;52.744;15.242;2024-02-15T03:09:13;8;7;
70554;PMS5003;58104;52.744;15.242;2024-02-15T03:11:39;8;7;
70554;PMS5003;58104;52.744;15.242;2024-02-15T03:14:04;8;8;
70554;PMS5003;58104;52.744;15.242;2024-02-15T03:16:30;8;8;
70554;PMS5003;58104;52.744;15.242;2024-02-15T03:18:55;7;7;
70554;PMS5003;58104;52.744;15.242;2024-02-15T03:21:21;8;8;
70554;PMS5003;58104;52.744;15.242;2024-02-15T03:23:46;11;10;
70554;PMS5003;58104;52.744;15.242;2024-02-15T03:26:11;8;8;
70554;PMS5003;58104;52.744;15.242;2024-02-15T03:28:36;6;6;
70554;PMS5003;58104;52.744;15.242;2024-02-15T03:31:02;8;8;
70554;PMS5003;58104;52.744;15.242;2024-02-15T03:33:27;9;8;
70554;PMS5003;58104;52.744;15.242;2024-02-15T03:35:53;8;8;
70554;PMS5003;58104;52.744;15.242;2024-02-15T03:38:18;7;7;
70554;PMS5003;58104;52.744;15.242;2024-02-15T03:40:44;6;6;
70554;PMS5003;58104;52.744;15.242;2024-02-15T03:43:09;9;7;
70554;PMS5003;58104;52.744;15.242;2024-02-15T03:45:35;7;6;
70554;PMS5003;58104;52.744;15.242;2024-02-15T03:48:00;9;7;
70554;PMS5003;58104;52.744;15.242;2024-02-15T03:50:25;10;8;
70554;PMS5003;58104;52.744;15.242;2024-02-15T03:52:51;7;7;
70554;PMS5003;58104;52.744;15.242;2024-02-15T03:55:16;10;6;
70554;PMS5003;58104;52.744;15.242;2024-02-15T03:57:42;8;8;
70554;PMS5003;58104;52.744;15.242;2024-02-15T04:00:07;8;8;
70554;PMS5003;58104;52.744;15.242;2024-02-15T04:02:33;12;8;
70554;PMS5003;58104;52.744;15.242;2024-02-15T04:04:58;6;6;
70554;PMS5003;58104;52.744;15.242;2024-02-15T04:07:23;7;7;
70554;PMS5003;58104;52.744;15.242;2024-02-15T04:09:49;7;7;
70554;PMS5003;58104;52.744;15.242;2024-02-15T04:12:14;6;6;
70554;PMS5003;58104;52.744;15.242;2024-02-15T04:14:40;9;9;
70554;PMS5003;58104;52.744;15.242;2024-02-15T04:17:05;6;5;
70554;PMS5003;58104;52.744;15.242;2024-02-15T04:19:30;7;7;
70554;PMS5003;58104;52.744;15.242;2024-02-15T04:21:57;7;7;
70554;PMS5003;58104;52.744;15.242;2024-02-15T04:24:21;8;8;
70554;PMS5003;58104;52.744;15.242;2024-02-15T04:26:47;9;7;
70554;PMS5003;58104;52.744;15.242;2024-02-15T04:29:12;11;11;
70554;PMS5003;58104;52.744;15.242;2024-02-15T04:31:38;8;8;
70554;PMS5003;58104;52.744;15.242;2024-02-15T04:34:03;10;8;
70554;PMS5003;58104;52.744;15.242;2024-02-15T04:36:28;9;9;
70554;PMS5003;58104;52.744;15.242;2024-02-15T04:38:54;7;7;
70554;PMS5003;58104;52.744;15.242;2024-02-15T04:41:19;7;6;
70554;PMS5003;58104;52.744;15.242;2024-02-15T04:43:45;7;7;
70554;PMS5003;58104;52.744;15.242;2024-02-15T04:46:10;8;8;
70554;PMS5003;58104;52.744;15.242;2024-02-15T04:48:35;7;6;
70554;PMS5003;58104;52.744;15.242;2024-02-15T04:51:01;11;9;
70554;PMS5003;58104;52.744;15.242;2024-02-15T04:53:26;7;6;
70554;PMS5003;58104;52.744;15.242;2024-02-15T04:55:52;7;7;
70554;PMS5003;58104;52.744;15.242;2024-02-15T04:58:19;7;7;
70554;PMS5003;58104;52.744;15.242;2024-02-15T05:00:42;8;7;
70554;PMS5003;58104;52.744;15.242;2024-02-15T05:03:08;6;6;
70554;PMS5003;58104;52.744;15.242;2024-02-15T05:05:33;7;7;
70554;PMS5003;58104;52.744;15.242;2024-02-15T05:07:59;6;6;
70554;PMS5003;58104;52.744;15.242;2024-02-15T05:10:24;9;7;
70554;PMS5003;58104;52.744;15.242;2024-02-15T05:12:50;7;7;
70554;PMS5003;58104;52.744;15.242;2024-02-15T05:15:15;7;7;
70554;PMS5003;58104;52.744;15.242;2024-02-15T05:17:40;7;5;
70554;PMS5003;58104;52.744;15.242;2024-02-15T05:20:06;9;9;
70554;PMS5003;58104;52.744;15.242;2024-02-15T05:22:31;13;11;
70554;PMS5003;58104;52.744;15.242;2024-02-15T05:24:56;11;10;
70554;PMS5003;58104;52.744;15.242;2024-02-15T05:27:22;7;6;
70554;PMS5003;58104;52.744;15.242;2024-02-15T05:29:47;6;6;
70554;PMS5003;58104;52.744;15.242;2024-02-15T05:32:12;6;6;
70554;PMS5003;58104;52.744;15.242;2024-02-15T05:34:39;7;7;
70554;PMS5003;58104;52.744;15.242;2024-02-15T05:37:03;8;8;
70554;PMS5003;58104;52.744;15.242;2024-02-15T05:39:29;8;7;
70554;PMS5003;58104;52.744;15.242;2024-02-15T05:41:54;8;8;
70554;PMS5003;58104;52.744;15.242;2024-02-15T05:44:20;7;7;
70554;PMS5003;58104;52.744;15.242;2024-02-15T05:46:45;9;7;
70554;PMS5003;58104;52.744;15.242;2024-02-15T05:49:10;8;8;
70554;PMS5003;58104;52.744;15.242;2024-02-15T05:51:36;4;4;
70554;PMS5003;58104;52.744;15.242;2024-02-15T05:54:01;6;6;
70554;PMS5003;58104;52.744;15.242;2024-02-15T05:56:27;5;5;
70554;PMS5003;58104;52.744;15.242;2024-02-15T05:58:53;9;7;
70554;PMS5003;58104;52.744;15.242;2024-02-15T06:01:17;8;6;
70554;PMS5003;58104;52.744;15.242;2024-02-15T06:03:43;8;6;
70554;PMS5003;58104;52.744;15.242;2024-02-15T06:06:09;6;6;
70554;PMS5003;58104;52.744;15.242;2024-02-15T06:08:34;7;7;
70554;PMS5003;58104;52.744;15.242;2024-02-15T06:10:59;7;5;
70554;PMS5003;58104;52.744;15.242;2024-02-15T06:13:26;11;11;
70554;PMS5003;58104;52.744;15.242;2024-02-15T06:15:50;11;11;
70554;PMS5003;58104;52.744;15.242;2024-02-15T06:18:15;11;11;
70554;PMS5003;58104;52.744;15.242;2024-02-15T06:20:41;13;13;
70554;PMS5003;58104;52.744;15.242;2024-02-15T06:23:06;12;11;
70554;PMS5003;58104;52.744;15.242;2024-02-15T06:25:32;13;13;
70554;PMS5003;58104;52.744;15.242;2024-02-15T06:27:57;16;14;
70554;PMS5003;58104;52.744;15.242;2024-02-15T06:30:23;19;13;
70554;PMS5003;58104;52.744;15.242;2024-02-15T06:32:48;12;12;
70554;PMS5003;58104;52.744;15.242;2024-02-15T06:35:15;15;14;
70554;PMS5003;58104;52.744;15.242;2024-02-15T06:37:39;16;16;
70554;PMS5003;58104;52.744;15.242;2024-02-15T06:40:05;26;19;
70554;PMS5003;58104;52.744;15.242;2024-02-15T06:42:29;20;15;
70554;PMS5003;58104;52.744;15.242;2024-02-15T06:44:54;16;16;
70554;PMS5003;58104;52.744;15.242;2024-02-15T06:47:20;19;18;
70554;PMS5003;58104;52.744;15.242;2024-02-15T06:49:45;15;15;
70554;PMS5003;58104;52.744;15.242;2024-02-15T06:52:11;18;17;
70554;PMS5003;58104;52.744;15.242;2024-02-15T06:54:36;15;13;
70554;PMS5003;58104;52.744;15.242;2024-02-15T06:57:02;19;16;
70554;PMS5003;58104;52.744;15.242;2024-02-15T06:59:28;17;16;
70554;PMS5003;58104;52.744;15.242;2024-02-15T07:01:52;16;15;
70554;PMS5003;58104;52.744;15.242;2024-02-15T07:04:18;25;21;
70554;PMS5003;58104;52.744;15.242;2024-02-15T07:06:43;10;10;
70554;PMS5003;58104;52.744;15.242;2024-02-15T07:09:08;15;15;
70554;PMS5003;58104;52.744;15.242;2024-02-15T07:11:33;18;14;
70554;PMS5003;58104;52.744;15.242;2024-02-15T07:13:58;17;16;
70554;PMS5003;58104;52.744;15.242;2024-02-15T07:16:24;17;14;
70554;PMS5003;58104;52.744;15.242;2024-02-15T07:18:50;21;19;
70554;PMS5003;58104;52.744;15.242;2024-02-15T07:21:15;15;15;
70554;PMS5003;58104;52.744;15.242;2024-02-15T07:23:41;19;17;
70554;PMS5003;58104;52.744;15.242;2024-02-15T07:26:06;16;16;
70554;PMS5003;58104;52.744;15.242;2024-02-15T07:28:32;18;17;
70554;PMS5003;58104;52.744;15.242;2024-02-15T07:30:57;16;16;
70554;PMS5003;58104;52.744;15.242;2024-02-15T07:33:22;16;15;
70554;PMS5003;58104;52.744;15.242;2024-02-15T07:35:48;23;23;
70554;PMS5003;58104;52.744;15.242;2024-02-15T07:38:13;19;19;
70554;PMS5003;58104;52.744;15.242;2024-02-15T07:40:39;19;19;
70554;PMS5003;58104;52.744;15.242;2024-02-15T07:43:05;20;16;
70554;PMS5003;58104;52.744;15.242;2024-02-15T07:45:30;21;20;
70554;PMS5003;58104;52.744;15.242;2024-02-15T07:47:56;19;17;
70554;PMS5003;58104;52.744;15.242;2024-02-15T07:50:21;20;19;
70554;PMS5003;58104;52.744;15.242;2024-02-15T07:52:46;16;16;
70554;PMS5003;58104;52.744;15.242;2024-02-15T07:55:12;19;19;
70554;PMS5003;58104;52.744;15.242;2024-02-15T07:57:37;21;20;
70554;PMS5003;58104;52.744;15.242;2024-02-15T08:00:04;21;21;
70554;PMS5003;58104;52.744;15.242;2024-02-15T08:02:28;24;23;
70554;PMS5003;58104;52.744;15.242;2024-02-15T08:04:53;22;21;
70554;PMS5003;58104;52.744;15.242;2024-02-15T08:07:19;20;18;
70554;PMS5003;58104;52.744;15.242;2024-02-15T08:09:44;22;19;
70554;PMS5003;58104;52.744;15.242;2024-02-15T08:12:09;17;17;
70554;PMS5003;58104;52.744;15.242;2024-02-15T08:14:34;26;22;
70554;PMS5003;58104;52.744;15.242;2024-02-15T08:16:59;20;20;
70554;PMS5003;58104;52.744;15.242;2024-02-15T08:19:24;19;19;
70554;PMS5003;58104;52.744;15.242;2024-02-15T08:21:50;30;27;
70554;PMS5003;58104;52.744;15.242;2024-02-15T08:24:15;19;19;
70554;PMS5003;58104;52.744;15.242;2024-02-15T08:26:40;21;17;
70554;PMS5003;58104;52.744;15.242;2024-02-15T08:29:06;19;17;
70554;PMS5003;58104;52.744;15.242;2024-02-15T08:31:31;22;20;
70554;PMS5003;58104;52.744;15.242;2024-02-15T08:33:57;21;19;
70554;PMS5003;58104;52.744;15.242;2024-02-15T08:36:22;19;17;
70554;PMS5003;58104;52.744;15.242;2024-02-15T08:38:48;22;21;
70554;PMS5003;58104;52.744;15.242;2024-02-15T08:41:13;22;20;
70554;PMS5003;58104;52.744;15.242;2024-02-15T08:43:38;21;18;
70554;PMS5003;58104;52.744;15.242;2024-02-15T08:46:04;22;17;
70554;PMS5003;58104;52.744;15.242;2024-02-15T08:48:29;17;16;
70554;PMS5003;58104;52.744;15.242;2024-02-15T08:50:55;18;18;
70554;PMS5003;58104;52.744;15.242;2024-02-15T08:53:20;21;18;
70554;PMS5003;58104;52.744;15.242;2024-02-15T08:55:45;23;21;
70554;PMS5003;58104;52.744;15.242;2024-02-15T08:58:11;19;17;
70554;PMS5003;58104;52.744;15.242;2024-02-15T09:00:36;17;17;
70554;PMS5003;58104;52.744;15.242;2024-02-15T09:03:01;18;18;
70554;PMS5003;58104;52.744;15.242;2024-02-15T09:05:27;17;16;
70554;PMS5003;58104;52.744;15.242;2024-02-15T09:07:52;22;18;
70554;PMS5003;58104;52.744;15.242;2024-02-15T09:10:17;16;16;
70554;PMS5003;58104;52.744;15.242;2024-02-15T09:12:43;18;18;
70554;PMS5003;58104;52.744;15.242;2024-02-15T09:15:08;25;23;
70554;PMS5003;58104;52.744;15.242;2024-02-15T09:17:34;15;15;
70554;PMS5003;58104;52.744;15.242;2024-02-15T09:19:59;18;17;
70554;PMS5003;58104;52.744;15.242;2024-02-15T09:22:24;19;19;
70554;PMS5003;58104;52.744;15.242;2024-02-15T09:24:50;17;17;
70554;PMS5003;58104;52.744;15.242;2024-02-15T09:27:15;19;17;
70554;PMS5003;58104;52.744;15.242;2024-02-15T09:29:40;22;19;
70554;PMS5003;58104;52.744;15.242;2024-02-15T09:32:05;18;16;
70554;PMS5003;58104;52.744;15.242;2024-02-15T09:34:31;19;18;
70554;PMS5003;58104;52.744;15.242;2024-02-15T09:36:58;20;17;
70554;PMS5003;58104;52.744;15.242;2024-02-15T09:39:21;19;19;
70554;PMS5003;58104;52.744;15.242;2024-02-15T09:41:46;19;17;
70554;PMS5003;58104;52.744;15.242;2024-02-15T09:44:12;16;16;
70554;PMS5003;58104;52.744;15.242;2024-02-15T09:46:43;23;19;
70554;PMS5003;58104;52.744;15.242;2024-02-15T09:49:03;22;20;
70554;PMS5003;58104;52.744;15.242;2024-02-15T09:51:28;22;19;
70554;PMS5003;58104;52.744;15.242;2024-02-15T09:53:54;28;25;
70554;PMS5003;58104;52.744;15.242;2024-02-15T09:56:19;22;19;
70554;PMS5003;58104;52.744;15.242;2024-02-15T09:58:45;19;17;
70554;PMS5003;58104;52.744;15.242;2024-02-15T10:01:10;18;18;
70554;PMS5003;58104;52.744;15.242;2024-02-15T10:03:36;20;20;
70554;PMS5003;58104;52.744;15.242;2024-02-15T10:06:01;19;17;
70554;PMS5003;58104;52.744;15.242;2024-02-15T10:08:26;23;20;
70554;PMS5003;58104;52.744;15.242;2024-02-15T10:13:18;22;20;
70554;PMS5003;58104;52.744;15.242;2024-02-15T10:15:43;28;26;
70554;PMS5003;58104;52.744;15.242;2024-02-15T10:18:09;24;23;
70554;PMS5003;58104;52.744;15.242;2024-02-15T10:20:35;25;24;
70554;PMS5003;58104;52.744;15.242;2024-02-15T10:25:26;19;17;
70554;PMS5003;58104;52.744;15.242;2024-02-15T10:27:50;19;17;
70554;PMS5003;58104;52.744;15.242;2024-02-15T10:30:16;23;20;
70554;PMS5003;58104;52.744;15.242;2024-02-15T10:32:41;21;19;
70554;PMS5003;58104;52.744;15.242;2024-02-15T10:35:07;22;22;
70554;PMS5003;58104;52.744;15.242;2024-02-15T10:37:32;20;18;
70554;PMS5003;58104;52.744;15.242;2024-02-15T10:42:23;23;20;
70554;PMS5003;58104;52.744;15.242;2024-02-15T10:44:48;19;18;
70554;PMS5003;58104;52.744;15.242;2024-02-15T10:47:14;19;17;
70554;PMS5003;58104;52.744;15.242;2024-02-15T10:49:40;20;18;
70554;PMS5003;58104;52.744;15.242;2024-02-15T10:52:05;25;21;
70554;PMS5003;58104;52.744;15.242;2024-02-15T10:54:35;17;17;
70554;PMS5003;58104;52.744;15.242;2024-02-15T10:56:56;19;18;
70554;PMS5003;58104;52.744;15.242;2024-02-15T10:59:21;27;25;
70554;PMS5003;58104;52.744;15.242;2024-02-15T11:01:46;23;20;
70554;PMS5003;58104;52.744;15.242;2024-02-15T11:04:13;21;21;
70554;PMS5003;58104;52.744;15.242;2024-02-15T11:06:38;16;16;
70554;PMS5003;58104;52.744;15.242;2024-02-15T11:09:02;20;19;
70554;PMS5003;58104;52.744;15.242;2024-02-15T11:11:28;22;22;
70554;PMS5003;58104;52.744;15.242;2024-02-15T11:18:45;21;21;
70554;PMS5003;58104;52.744;15.242;2024-02-15T11:21:11;20;19;
70554;PMS5003;58104;52.744;15.242;2024-02-15T11:23:36;19;17;
70554;PMS5003;58104;52.744;15.242;2024-02-15T11:26:02;16;16;
70554;PMS5003;58104;52.744;15.242;2024-02-15T11:30:52;19;16;
70554;PMS5003;58104;52.744;15.242;2024-02-15T11:33:25;15;12;
70554;PMS5003;58104;52.744;15.242;2024-02-15T11:38:09;16;15;
70554;PMS5003;58104;52.744;15.242;2024-02-15T11:43:00;17;16;
70554;PMS5003;58104;52.744;15.242;2024-02-15T11:45:25;19;18;
70554;PMS5003;58104;52.744;15.242;2024-02-15T11:47:52;23;18;
70554;PMS5003;58104;52.744;15.242;2024-02-15T11:50:17;16;15;
70554;PMS5003;58104;52.744;15.242;2024-02-15T11:52:41;20;15;
70554;PMS5003;58104;52.744;15.242;2024-02-15T11:55:07;18;15;
70554;PMS5003;58104;52.744;15.242;2024-02-15T11:57:33;15;15;
70554;PMS5003;58104;52.744;15.242;2024-02-15T11:59:58;18;16;
70554;PMS5003;58104;52.744;15.242;2024-02-15T12:02:23;21;19;
70554;PMS5003;58104;52.744;15.242;2024-02-15T12:04:48;19;19;
70554;PMS5003;58104;52.744;15.242;2024-02-15T12:07:14;23;20;
70554;PMS5003;58104;52.744;15.242;2024-02-15T12:09:39;17;17;
70554;PMS5003;58104;52.744;15.242;2024-02-15T12:12:04;16;16;
70554;PMS5003;58104;52.744;15.242;2024-02-15T12:14:30;17;16;
70554;PMS5003;58104;52.744;15.242;2024-02-15T12:17:00;15;15;
70554;PMS5003;58104;52.744;15.242;2024-02-15T12:19:21;16;15;
70554;PMS5003;58104;52.744;15.242;2024-02-15T12:21:46;20;18;
70554;PMS5003;58104;52.744;15.242;2024-02-15T12:24:12;21;17;
70554;PMS5003;58104;52.744;15.242;2024-02-15T12:26:37;21;18;
70554;PMS5003;58104;52.744;15.242;2024-02-15T12:29:02;23;21;
70554;PMS5003;58104;52.744;15.242;2024-02-15T12:31:28;12;12;
70554;PMS5003;58104;52.744;15.242;2024-02-15T12:33:59;19;15;
70554;PMS5003;58104;52.744;15.242;2024-02-15T12:36:19;20;19;
70554;PMS5003;58104;52.744;15.242;2024-02-15T12:38:43;17;15;
70554;PMS5003;58104;52.744;15.242;2024-02-15T12:43:34;15;14;
70554;PMS5003;58104;52.744;15.242;2024-02-15T12:45:59;14;14;
70554;PMS5003;58104;52.744;15.242;2024-02-15T12:48:25;19;18;
70554;PMS5003;58104;52.744;15.242;2024-02-15T12:50:50;19;17;
70554;PMS5003;58104;52.744;15.242;2024-02-15T12:53:20;16;15;
70554;PMS5003;58104;52.744;15.242;2024-02-15T12:55:41;15;14;
70554;PMS5003;58104;52.744;15.242;2024-02-15T12:58:09;17;17;
70554;PMS5003;58104;52.744;15.242;2024-02-15T13:00:32;18;18;
70554;PMS5003;58104;52.744;15.242;2024-02-15T13:02:58;18;17;
70554;PMS5003;58104;52.744;15.242;2024-02-15T13:05:24;16;15;
70554;PMS5003;58104;52.744;15.242;2024-02-15T13:07:48;18;16;
70554;PMS5003;58104;52.744;15.242;2024-02-15T13:10:13;11;11;
70554;PMS5003;58104;52.744;15.242;2024-02-15T13:12:38;17;16;
70554;PMS5003;58104;52.744;15.242;2024-02-15T13:15:04;18;17;
70554;PMS5003;58104;52.744;15.242;2024-02-15T13:17:29;20;18;
70554;PMS5003;58104;52.744;15.242;2024-02-15T13:19:54;21;20;
70554;PMS5003;58104;52.744;15.242;2024-02-15T13:22:19;15;15;
70554;PMS5003;58104;52.744;15.242;2024-02-15T13:24:45;21;21;
70554;PMS5003;58104;52.744;15.242;2024-02-15T13:27:10;19;16;
70554;PMS5003;58104;52.744;15.242;2024-02-15T13:29:35;20;20;
70554;PMS5003;58104;52.744;15.242;2024-02-15T13:32:00;20;19;
70554;PMS5003;58104;52.744;15.242;2024-02-15T13:34:26;19;19;
70554;PMS5003;58104;52.744;15.242;2024-02-15T13:36:52;15;15;
70554;PMS5003;58104;52.744;15.242;2024-02-15T13:39:17;15;13;
70554;PMS5003;58104;52.744;15.242;2024-02-15T13:41:42;19;15;
70554;PMS5003;58104;52.744;15.242;2024-02-15T13:44:08;16;15;
70554;PMS5003;58104;52.744;15.242;2024-02-15T13:46:33;24;22;
70554;PMS5003;58104;52.744;15.242;2024-02-15T13:48:59;12;12;
70554;PMS5003;58104;52.744;15.242;2024-02-15T13:51:24;16;16;
70554;PMS5003;58104;52.744;15.242;2024-02-15T13:53:49;13;13;
70554;PMS5003;58104;52.744;15.242;2024-02-15T13:56:14;14;14;
70554;PMS5003;58104;52.744;15.242;2024-02-15T13:58:40;13;12;
70554;PMS5003;58104;52.744;15.242;2024-02-15T14:01:05;15;14;
70554;PMS5003;58104;52.744;15.242;2024-02-15T14:03:30;13;13;
70554;PMS5003;58104;52.744;15.242;2024-02-15T14:05:57;18;14;
70554;PMS5003;58104;52.744;15.242;2024-02-15T14:08:21;14;14;
70554;PMS5003;58104;52.744;15.242;2024-02-15T14:10:46;13;13;
70554;PMS5003;58104;52.744;15.242;2024-02-15T14:13:12;14;14;
70554;PMS5003;58104;52.744;15.242;2024-02-15T14:15:37;14;14;
70554;PMS5003;58104;52.744;15.242;2024-02-15T14:18:03;20;16;
70554;PMS5003;58104;52.744;15.242;2024-02-15T14:20:28;15;15;
70554;PMS5003;58104;52.744;15.242;2024-02-15T14:22:53;16;16;
70554;PMS5003;58104;52.744;15.242;2024-02-15T14:25:18;15;15;
70554;PMS5003;58104;52.744;15.242;2024-02-15T14:27:43;14;14;
70554;PMS5003;58104;52.744;15.242;2024-02-15T14:30:10;20;20;
70554;PMS5003;58104;52.744;15.242;2024-02-15T14:32:34;14;14;
70554;PMS5003;58104;52.744;15.242;2024-02-15T14:35:00;16;14;
70554;PMS5003;58104;52.744;15.242;2024-02-15T14:37:25;16;15;
70554;PMS5003;58104;52.744;15.242;2024-02-15T14:39:51;13;10;
70554;PMS5003;58104;52.744;15.242;2024-02-15T14:42:16;12;12;
70554;PMS5003;58104;52.744;15.242;2024-02-15T14:44:42;14;13;
70554;PMS5003;58104;52.744;15.242;2024-02-15T14:47:07;13;12;
70554;PMS5003;58104;52.744;15.242;2024-02-15T14:49:32;12;12;
70554;PMS5003;58104;52.744;15.242;2024-02-15T14:51:58;14;12;
70554;PMS5003;58104;52.744;15.242;2024-02-15T14:54:23;11;11;
70554;PMS5003;58104;52.744;15.242;2024-02-15T14:56:49;13;13;
70554;PMS5003;58104;52.744;15.242;2024-02-15T14:59:14;14;11;
70554;PMS5003;58104;52.744;15.242;2024-02-15T15:01:39;10;10;
70554;PMS5003;58104;52.744;15.242;2024-02-15T15:04:05;12;12;
70554;PMS5003;58104;52.744;15.242;2024-02-15T15:06:30;11;11;
70554;PMS5003;58104;52.744;15.242;2024-02-15T15:08:55;12;11;
70554;PMS5003;58104;52.744;15.242;2024-02-15T15:11:21;14;11;
70554;PMS5003;58104;52.744;15.242;2024-02-15T15:13:46;11;11;
70554;PMS5003;58104;52.744;15.242;2024-02-15T15:16:12;10;9;
70554;PMS5003;58104;52.744;15.242;2024-02-15T15:18:37;12;12;
70554;PMS5003;58104;52.744;15.242;2024-02-15T15:21:04;12;10;
70554;PMS5003;58104;52.744;15.242;2024-02-15T15:23:27;10;10;
70554;PMS5003;58104;52.744;15.242;2024-02-15T15:25:53;14;10;
70554;PMS5003;58104;52.744;15.242;2024-02-15T15:28:18;16;14;
70554;PMS5003;58104;52.744;15.242;2024-02-15T15:30:43;14;14;
70554;PMS5003;58104;52.744;15.242;2024-02-15T15:33:09;15;14;
70554;PMS5003;58104;52.744;15.242;2024-02-15T15:35:34;20;20;
70554;PMS5003;58104;52.744;15.242;2024-02-15T15:40:25;14;13;
70554;PMS5003;58104;52.744;15.242;2024-02-15T15:42:51;20;18;
70554;PMS5003;58104;52.744;15.242;2024-02-15T15:45:17;14;13;
70554;PMS5003;58104;52.744;15.242;2024-02-15T15:47:41;12;12;
70554;PMS5003;58104;52.744;15.242;2024-02-15T15:50:07;20;20;
70554;PMS5003;58104;52.744;15.242;2024-02-15T15:52:32;15;15;
70554;PMS5003;58104;52.744;15.242;2024-02-15T15:54:57;14;12;
70554;PMS5003;58104;52.744;15.242;2024-02-15T15:57:22;19;17;
70554;PMS5003;58104;52.744;15.242;2024-02-15T15:59:48;15;14;
70554;PMS5003;58104;52.744;15.242;2024-02-15T16:02:13;21;16;
70554;PMS5003;58104;52.744;15.242;2024-02-15T16:04:42;18;14;
70554;PMS5003;58104;52.744;15.242;2024-02-15T16:07:03;14;13;
70554;PMS5003;58104;52.744;15.242;2024-02-15T16:09:29;15;13;
70554;PMS5003;58104;52.744;15.242;2024-02-15T16:11:54;19;17;
70554;PMS5003;58104;52.744;15.242;2024-02-15T16:14:20;20;17;
70554;PMS5003;58104;52.744;15.242;2024-02-15T16:16:45;17;17;
70554;PMS5003;58104;52.744;15.242;2024-02-15T16:19:10;22;19;
70554;PMS5003;58104;52.744;15.242;2024-02-15T16:21:35;15;15;